sensor_id;sensor_type;location;lat;lon;timestamp;P1;durP1;ratioP1;P2;durP2;ratioP2
3131;SDS011;62090;52.330;9.104;2023-09-18T00:02:12;8.50;;;6.70;;
3131;SDS011;62090;52.330;9.104;2023-09-18T00:04:42;8.27;;;5.50;;
3131;SDS011;62090;52.330;9.104;2023-09-18T00:07:15;11.37;;;6.87;;
3131;SDS011;62090;52.330;9.104;2023-09-18T00:09:44;18.30;;;6.07;;
3131;SDS011;62090;52.330;9.104;2023-09-18T00:12:15;11.87;;;5.90;;
3131;SDS011;62090;52.330;9.104;2023-09-18T00:14:47;12.07;;;6.37;;
3131;SDS011;62090;52.330;9.104;2023-09-18T00:17:18;11.90;;;6.23;;
3131;SDS011;62090;52.330;9.104;2023-09-18T00:19:49;9.70;;;6.17;;
3131;SDS011;62090;52.330;9.104;2023-09-18T00:22:23;13.83;;;5.43;;
3131;SDS011;62090;52.330;9.104;2023-09-18T00:24:55;9.80;;;5.47;;
3131;SDS011;62090;52.330;9.104;2023-09-18T00:27:25;11.20;;;6.60;;
3131;SDS011;62090;52.330;9.104;2023-09-18T00:29:55;9.07;;;5.73;;
3131;SDS011;62090;52.330;9.104;2023-09-18T00:32:25;20.07;;;6.60;;
3131;SDS011;62090;52.330;9.104;2023-09-18T00:34:55;13.17;;;6.67;;
3131;SDS011;62090;52.330;9.104;2023-09-18T00:37:28;10.63;;;5.73;;
3131;SDS011;62090;52.330;9.104;2023-09-18T00:39:59;8.30;;;6.20;;
3131;SDS011;62090;52.330;9.104;2023-09-18T00:42:31;10.97;;;6.20;;
3131;SDS011;62090;52.330;9.104;2023-09-18T00:45:01;13.30;;;6.23;;
3131;SDS011;62090;52.330;9.104;2023-09-18T00:47:32;13.00;;;6.30;;
3131;SDS011;62090;52.330;9.104;2023-09-18T00:50:04;8.97;;;6.20;;
3131;SDS011;62090;52.330;9.104;2023-09-18T00:52:39;14.53;;;7.07;;
3131;SDS011;62090;52.330;9.104;2023-09-18T00:55:10;14.20;;;7.00;;
3131;SDS011;62090;52.330;9.104;2023-09-18T00:57:41;15.20;;;6.33;;
3131;SDS011;62090;52.330;9.104;2023-09-18T01:00:12;15.03;;;8.00;;
3131;SDS011;62090;52.330;9.104;2023-09-18T01:02:44;8.10;;;5.70;;
3131;SDS011;62090;52.330;9.104;2023-09-18T01:05:15;9.90;;;6.37;;
3131;SDS011;62090;52.330;9.104;2023-09-18T01:07:49;17.23;;;6.60;;
3131;SDS011;62090;52.330;9.104;2023-09-18T01:10:20;12.07;;;6.10;;
3131;SDS011;62090;52.330;9.104;2023-09-18T01:12:55;8.83;;;5.90;;
3131;SDS011;62090;52.330;9.104;2023-09-18T01:15:38;9.67;;;6.80;;
3131;SDS011;62090;52.330;9.104;2023-09-18T01:18:13;12.13;;;6.47;;
3131;SDS011;62090;52.330;9.104;2023-09-18T01:20:44;12.10;;;6.90;;
3131;SDS011;62090;52.330;9.104;2023-09-18T01:23:16;9.30;;;5.40;;
3131;SDS011;62090;52.330;9.104;2023-09-18T01:25:48;8.50;;;5.60;;
3131;SDS011;62090;52.330;9.104;2023-09-18T01:28:18;10.20;;;6.00;;
3131;SDS011;62090;52.330;9.104;2023-09-18T01:30:48;11.73;;;5.70;;
3131;SDS011;62090;52.330;9.104;2023-09-18T01:33:23;12.27;;;6.07;;
3131;SDS011;62090;52.330;9.104;2023-09-18T01:35:55;8.20;;;5.83;;
3131;SDS011;62090;52.330;9.104;2023-09-18T01:38:29;12.27;;;6.00;;
3131;SDS011;62090;52.330;9.104;2023-09-18T01:41:00;10.07;;;6.20;;
3131;SDS011;62090;52.330;9.104;2023-09-18T01:43:31;14.10;;;8.73;;
3131;SDS011;62090;52.330;9.104;2023-09-18T01:46:02;16.80;;;6.57;;
3131;SDS011;62090;52.330;9.104;2023-09-18T01:48:34;13.57;;;6.60;;
3131;SDS011;62090;52.330;9.104;2023-09-18T01:51:04;9.23;;;6.20;;
3131;SDS011;62090;52.330;9.104;2023-09-18T01:53:37;12.33;;;5.87;;
3131;SDS011;62090;52.330;9.104;2023-09-18T01:56:08;8.80;;;5.90;;
3131;SDS011;62090;52.330;9.104;2023-09-18T01:58:38;9.10;;;6.80;;
3131;SDS011;62090;52.330;9.104;2023-09-18T02:01:10;9.70;;;6.87;;
3131;SDS011;62090;52.330;9.104;2023-09-18T02:03:42;9.03;;;6.40;;
3131;SDS011;62090;52.330;9.104;2023-09-18T02:06:36;12.50;;;7.00;;
3131;SDS011;62090;52.330;9.104;2023-09-18T02:09:10;13.90;;;6.87;;
3131;SDS011;62090;52.330;9.104;2023-09-18T02:11:40;10.80;;;7.00;;
3131;SDS011;62090;52.330;9.104;2023-09-18T02:14:15;12.30;;;7.00;;
3131;SDS011;62090;52.330;9.104;2023-09-18T02:16:45;12.50;;;6.90;;
3131;SDS011;62090;52.330;9.104;2023-09-18T02:19:16;14.03;;;6.57;;
3131;SDS011;62090;52.330;9.104;2023-09-18T02:21:47;11.10;;;6.80;;
3131;SDS011;62090;52.330;9.104;2023-09-18T02:24:20;10.70;;;6.37;;
3131;SDS011;62090;52.330;9.104;2023-09-18T02:26:50;8.37;;;6.07;;
3131;SDS011;62090;52.330;9.104;2023-09-18T02:29:20;7.40;;;6.47;;
3131;SDS011;62090;52.330;9.104;2023-09-18T02:31:51;10.50;;;5.90;;
3131;SDS011;62090;52.330;9.104;2023-09-18T02:34:22;13.53;;;6.70;;
3131;SDS011;62090;52.330;9.104;2023-09-18T02:36:52;10.23;;;6.73;;
3131;SDS011;62090;52.330;9.104;2023-09-18T02:39:25;12.53;;;6.90;;
3131;SDS011;62090;52.330;9.104;2023-09-18T02:41:55;10.57;;;6.57;;
3131;SDS011;62090;52.330;9.104;2023-09-18T02:44:26;11.10;;;6.60;;
3131;SDS011;62090;52.330;9.104;2023-09-18T02:46:57;13.10;;;7.13;;
3131;SDS011;62090;52.330;9.104;2023-09-18T02:49:27;15.93;;;7.27;;
3131;SDS011;62090;52.330;9.104;2023-09-18T02:51:58;11.70;;;6.80;;
3131;SDS011;62090;52.330;9.104;2023-09-18T02:54:31;14.73;;;7.13;;
3131;SDS011;62090;52.330;9.104;2023-09-18T02:57:15;18.57;;;7.90;;
3131;SDS011;62090;52.330;9.104;2023-09-18T02:59:52;12.47;;;7.57;;
3131;SDS011;62090;52.330;9.104;2023-09-18T03:02:25;8.90;;;6.80;;
3131;SDS011;62090;52.330;9.104;2023-09-18T03:04:57;14.47;;;6.70;;
3131;SDS011;62090;52.330;9.104;2023-09-18T03:07:28;12.23;;;6.87;;
3131;SDS011;62090;52.330;9.104;2023-09-18T03:10:01;12.67;;;6.37;;
3131;SDS011;62090;52.330;9.104;2023-09-18T03:12:32;10.17;;;6.80;;
3131;SDS011;62090;52.330;9.104;2023-09-18T03:15:03;11.33;;;6.90;;
3131;SDS011;62090;52.330;9.104;2023-09-18T03:17:34;9.20;;;6.77;;
3131;SDS011;62090;52.330;9.104;2023-09-18T03:20:05;13.47;;;7.23;;
3131;SDS011;62090;52.330;9.104;2023-09-18T03:22:37;13.27;;;6.97;;
3131;SDS011;62090;52.330;9.104;2023-09-18T03:25:10;14.20;;;7.53;;
3131;SDS011;62090;52.330;9.104;2023-09-18T03:27:40;10.77;;;6.80;;
3131;SDS011;62090;52.330;9.104;2023-09-18T03:30:10;17.13;;;6.57;;
3131;SDS011;62090;52.330;9.104;2023-09-18T03:32:43;12.83;;;6.70;;
3131;SDS011;62090;52.330;9.104;2023-09-18T03:35:15;17.43;;;7.07;;
3131;SDS011;62090;52.330;9.104;2023-09-18T03:37:48;25.87;;;7.00;;
3131;SDS011;62090;52.330;9.104;2023-09-18T03:40:24;14.77;;;7.77;;
3131;SDS011;62090;52.330;9.104;2023-09-18T03:42:54;16.23;;;6.70;;
3131;SDS011;62090;52.330;9.104;2023-09-18T03:45:24;15.00;;;6.70;;
3131;SDS011;62090;52.330;9.104;2023-09-18T03:47:55;11.57;;;6.60;;
3131;SDS011;62090;52.330;9.104;2023-09-18T03:50:26;10.83;;;5.50;;
3131;SDS011;62090;52.330;9.104;2023-09-18T03:52:57;9.83;;;6.07;;
3131;SDS011;62090;52.330;9.104;2023-09-18T03:55:31;10.30;;;6.20;;
3131;SDS011;62090;52.330;9.104;2023-09-18T03:58:01;11.80;;;6.10;;
3131;SDS011;62090;52.330;9.104;2023-09-18T04:00:43;9.40;;;5.70;;
3131;SDS011;62090;52.330;9.104;2023-09-18T04:03:20;21.60;;;6.70;;
3131;SDS011;62090;52.330;9.104;2023-09-18T04:05:52;7.60;;;4.80;;
3131;SDS011;62090;52.330;9.104;2023-09-18T04:08:41;9.57;;;5.10;;
3131;SDS011;62090;52.330;9.104;2023-09-18T04:11:14;16.30;;;6.13;;
3131;SDS011;62090;52.330;9.104;2023-09-18T04:13:46;14.63;;;5.30;;
3131;SDS011;62090;52.330;9.104;2023-09-18T04:16:16;11.40;;;5.00;;
3131;SDS011;62090;52.330;9.104;2023-09-18T04:18:46;6.33;;;5.20;;
3131;SDS011;62090;52.330;9.104;2023-09-18T04:21:17;7.20;;;4.70;;
3131;SDS011;62090;52.330;9.104;2023-09-18T04:23:48;9.23;;;4.70;;
3131;SDS011;62090;52.330;9.104;2023-09-18T04:26:26;7.00;;;4.77;;
3131;SDS011;62090;52.330;9.104;2023-09-18T04:28:58;15.63;;;5.07;;
3131;SDS011;62090;52.330;9.104;2023-09-18T04:31:30;7.57;;;5.00;;
3131;SDS011;62090;52.330;9.104;2023-09-18T04:34:02;5.60;;;4.53;;
3131;SDS011;62090;52.330;9.104;2023-09-18T04:36:33;7.20;;;4.50;;
3131;SDS011;62090;52.330;9.104;2023-09-18T04:39:05;5.40;;;4.27;;
3131;SDS011;62090;52.330;9.104;2023-09-18T04:41:39;7.20;;;4.30;;
3131;SDS011;62090;52.330;9.104;2023-09-18T04:44:09;7.50;;;4.37;;
3131;SDS011;62090;52.330;9.104;2023-09-18T04:46:41;12.77;;;4.40;;
3131;SDS011;62090;52.330;9.104;2023-09-18T04:49:12;9.60;;;4.57;;
3131;SDS011;62090;52.330;9.104;2023-09-18T04:51:42;5.87;;;4.47;;
3131;SDS011;62090;52.330;9.104;2023-09-18T04:54:13;6.23;;;3.83;;
3131;SDS011;62090;52.330;9.104;2023-09-18T04:56:46;8.70;;;4.40;;
3131;SDS011;62090;52.330;9.104;2023-09-18T04:59:16;12.90;;;4.30;;
3131;SDS011;62090;52.330;9.104;2023-09-18T05:01:46;4.53;;;3.80;;
3131;SDS011;62090;52.330;9.104;2023-09-18T05:04:16;14.80;;;4.73;;
3131;SDS011;62090;52.330;9.104;2023-09-18T05:06:46;12.50;;;4.87;;
3131;SDS011;62090;52.330;9.104;2023-09-18T05:09:16;7.80;;;4.60;;
3131;SDS011;62090;52.330;9.104;2023-09-18T05:11:49;6.97;;;4.70;;
3131;SDS011;62090;52.330;9.104;2023-09-18T05:14:18;7.67;;;4.33;;
3131;SDS011;62090;52.330;9.104;2023-09-18T05:16:48;12.10;;;4.10;;
3131;SDS011;62090;52.330;9.104;2023-09-18T05:19:18;7.17;;;4.10;;
3131;SDS011;62090;52.330;9.104;2023-09-18T05:21:48;7.30;;;4.50;;
3131;SDS011;62090;52.330;9.104;2023-09-18T05:24:18;9.97;;;4.50;;
3131;SDS011;62090;52.330;9.104;2023-09-18T05:26:56;6.53;;;3.97;;
3131;SDS011;62090;52.330;9.104;2023-09-18T05:29:26;8.13;;;4.20;;
3131;SDS011;62090;52.330;9.104;2023-09-18T05:31:56;5.30;;;3.90;;
3131;SDS011;62090;52.330;9.104;2023-09-18T05:34:28;5.17;;;3.60;;
3131;SDS011;62090;52.330;9.104;2023-09-18T05:36:58;6.20;;;4.23;;
3131;SDS011;62090;52.330;9.104;2023-09-18T05:39:28;7.87;;;3.77;;
3131;SDS011;62090;52.330;9.104;2023-09-18T05:42:01;14.30;;;4.50;;
3131;SDS011;62090;52.330;9.104;2023-09-18T05:44:31;5.00;;;4.27;;
3131;SDS011;62090;52.330;9.104;2023-09-18T05:47:01;5.43;;;4.20;;
3131;SDS011;62090;52.330;9.104;2023-09-18T05:49:32;5.73;;;4.60;;
3131;SDS011;62090;52.330;9.104;2023-09-18T05:52:02;7.20;;;4.40;;
3131;SDS011;62090;52.330;9.104;2023-09-18T05:54:33;4.97;;;3.60;;
3131;SDS011;62090;52.330;9.104;2023-09-18T05:57:06;6.27;;;4.13;;
3131;SDS011;62090;52.330;9.104;2023-09-18T05:59:36;4.70;;;4.07;;
3131;SDS011;62090;52.330;9.104;2023-09-18T06:02:07;14.83;;;4.30;;
3131;SDS011;62090;52.330;9.104;2023-09-18T06:04:37;4.60;;;3.53;;
3131;SDS011;62090;52.330;9.104;2023-09-18T06:07:07;8.80;;;4.20;;
3131;SDS011;62090;52.330;9.104;2023-09-18T06:09:39;5.07;;;4.13;;
3131;SDS011;62090;52.330;9.104;2023-09-18T06:12:12;11.63;;;4.10;;
3131;SDS011;62090;52.330;9.104;2023-09-18T06:14:42;8.87;;;4.50;;
3131;SDS011;62090;52.330;9.104;2023-09-18T06:17:14;5.60;;;4.43;;
3131;SDS011;62090;52.330;9.104;2023-09-18T06:19:45;7.47;;;4.07;;
3131;SDS011;62090;52.330;9.104;2023-09-18T06:22:16;4.90;;;4.13;;
3131;SDS011;62090;52.330;9.104;2023-09-18T06:24:46;7.73;;;4.50;;
3131;SDS011;62090;52.330;9.104;2023-09-18T06:27:19;6.30;;;4.00;;
3131;SDS011;62090;52.330;9.104;2023-09-18T06:29:49;7.57;;;4.60;;
3131;SDS011;62090;52.330;9.104;2023-09-18T06:32:19;6.40;;;4.90;;
3131;SDS011;62090;52.330;9.104;2023-09-18T06:38:09;10.27;;;3.90;;
3131;SDS011;62090;52.330;9.104;2023-09-18T06:41:45;11.00;;;4.50;;
3131;SDS011;62090;52.330;9.104;2023-09-18T06:44:27;9.67;;;4.97;;
3131;SDS011;62090;52.330;9.104;2023-09-18T06:46:57;8.80;;;4.30;;
3131;SDS011;62090;52.330;9.104;2023-09-18T06:49:29;20.93;;;4.60;;
3131;SDS011;62090;52.330;9.104;2023-09-18T06:51:59;11.53;;;4.80;;
3131;SDS011;62090;52.330;9.104;2023-09-18T06:54:32;4.80;;;4.20;;
3131;SDS011;62090;52.330;9.104;2023-09-18T06:57:03;6.93;;;4.33;;
3131;SDS011;62090;52.330;9.104;2023-09-18T06:59:36;7.73;;;4.60;;
3131;SDS011;62090;52.330;9.104;2023-09-18T07:02:06;5.07;;;3.37;;
3131;SDS011;62090;52.330;9.104;2023-09-18T07:04:36;5.87;;;4.20;;
3131;SDS011;62090;52.330;9.104;2023-09-18T07:07:12;7.17;;;3.97;;
3131;SDS011;62090;52.330;9.104;2023-09-18T07:09:42;4.97;;;4.13;;
3131;SDS011;62090;52.330;9.104;2023-09-18T07:12:30;6.93;;;4.50;;
3131;SDS011;62090;52.330;9.104;2023-09-18T07:15:02;6.40;;;4.63;;
3131;SDS011;62090;52.330;9.104;2023-09-18T07:17:33;17.53;;;4.10;;
3131;SDS011;62090;52.330;9.104;2023-09-18T07:20:04;6.10;;;4.20;;
3131;SDS011;62090;52.330;9.104;2023-09-18T07:22:45;8.37;;;3.90;;
3131;SDS011;62090;52.330;9.104;2023-09-18T07:25:17;6.30;;;4.23;;
3131;SDS011;62090;52.330;9.104;2023-09-18T07:27:47;6.70;;;4.27;;
3131;SDS011;62090;52.330;9.104;2023-09-18T07:30:19;8.73;;;4.43;;
3131;SDS011;62090;52.330;9.104;2023-09-18T07:32:54;8.33;;;4.53;;
3131;SDS011;62090;52.330;9.104;2023-09-18T07:35:26;5.80;;;3.77;;
3131;SDS011;62090;52.330;9.104;2023-09-18T07:37:56;7.70;;;4.23;;
3131;SDS011;62090;52.330;9.104;2023-09-18T07:40:26;5.80;;;3.90;;
3131;SDS011;62090;52.330;9.104;2023-09-18T07:42:56;13.93;;;4.00;;
3131;SDS011;62090;52.330;9.104;2023-09-18T07:45:28;6.93;;;3.63;;
3131;SDS011;62090;52.330;9.104;2023-09-18T07:47:58;9.50;;;3.80;;
3131;SDS011;62090;52.330;9.104;2023-09-18T07:50:28;8.97;;;3.90;;
3131;SDS011;62090;52.330;9.104;2023-09-18T07:53:00;10.07;;;3.53;;
3131;SDS011;62090;52.330;9.104;2023-09-18T07:55:29;11.00;;;4.00;;
3131;SDS011;62090;52.330;9.104;2023-09-18T07:57:59;7.83;;;3.10;;
3131;SDS011;62090;52.330;9.104;2023-09-18T08:00:32;11.80;;;4.10;;
3131;SDS011;62090;52.330;9.104;2023-09-18T08:03:03;6.47;;;3.87;;
3131;SDS011;62090;52.330;9.104;2023-09-18T08:05:33;7.60;;;3.70;;
3131;SDS011;62090;52.330;9.104;2023-09-18T08:08:03;11.60;;;4.30;;
3131;SDS011;62090;52.330;9.104;2023-09-18T08:10:36;9.67;;;4.17;;
3131;SDS011;62090;52.330;9.104;2023-09-18T08:13:07;9.93;;;3.83;;
3131;SDS011;62090;52.330;9.104;2023-09-18T08:15:40;7.33;;;3.50;;
3131;SDS011;62090;52.330;9.104;2023-09-18T08:18:10;8.97;;;3.50;;
3131;SDS011;62090;52.330;9.104;2023-09-18T08:20:41;7.97;;;3.53;;
3131;SDS011;62090;52.330;9.104;2023-09-18T08:23:12;12.07;;;3.37;;
3131;SDS011;62090;52.330;9.104;2023-09-18T08:25:44;10.03;;;3.80;;
3131;SDS011;62090;52.330;9.104;2023-09-18T08:28:18;5.83;;;3.20;;
3131;SDS011;62090;52.330;9.104;2023-09-18T08:30:51;14.67;;;3.97;;
3131;SDS011;62090;52.330;9.104;2023-09-18T08:33:23;15.67;;;4.17;;
3131;SDS011;62090;52.330;9.104;2023-09-18T08:35:53;11.10;;;3.37;;
3131;SDS011;62090;52.330;9.104;2023-09-18T08:38:23;6.20;;;3.43;;
3131;SDS011;62090;52.330;9.104;2023-09-18T08:41:06;12.00;;;4.07;;
3131;SDS011;62090;52.330;9.104;2023-09-18T08:43:45;9.80;;;3.67;;
3131;SDS011;62090;52.330;9.104;2023-09-18T08:46:23;8.63;;;3.90;;
3131;SDS011;62090;52.330;9.104;2023-09-18T08:49:01;9.17;;;3.50;;
3131;SDS011;62090;52.330;9.104;2023-09-18T08:51:32;8.77;;;3.27;;
3131;SDS011;62090;52.330;9.104;2023-09-18T08:54:04;11.13;;;3.47;;
3131;SDS011;62090;52.330;9.104;2023-09-18T08:56:37;6.37;;;3.17;;
3131;SDS011;62090;52.330;9.104;2023-09-18T08:59:11;10.87;;;3.50;;
3131;SDS011;62090;52.330;9.104;2023-09-18T09:01:45;8.27;;;3.90;;
3131;SDS011;62090;52.330;9.104;2023-09-18T09:04:17;6.70;;;3.00;;
3131;SDS011;62090;52.330;9.104;2023-09-18T09:06:52;5.67;;;3.17;;
3131;SDS011;62090;52.330;9.104;2023-09-18T09:09:24;5.80;;;3.80;;
3131;SDS011;62090;52.330;9.104;2023-09-18T09:11:54;15.33;;;3.57;;
3131;SDS011;62090;52.330;9.104;2023-09-18T09:14:24;10.07;;;3.77;;
3131;SDS011;62090;52.330;9.104;2023-09-18T09:16:59;22.60;;;3.13;;
3131;SDS011;62090;52.330;9.104;2023-09-18T09:19:31;16.33;;;3.23;;
3131;SDS011;62090;52.330;9.104;2023-09-18T09:22:05;9.63;;;3.00;;
3131;SDS011;62090;52.330;9.104;2023-09-18T09:24:36;12.67;;;3.53;;
3131;SDS011;62090;52.330;9.104;2023-09-18T09:27:07;8.33;;;3.80;;
3131;SDS011;62090;52.330;9.104;2023-09-18T09:29:38;10.50;;;2.43;;
3131;SDS011;62090;52.330;9.104;2023-09-18T09:32:17;7.43;;;2.73;;
3131;SDS011;62090;52.330;9.104;2023-09-18T09:34:48;4.83;;;2.30;;
3131;SDS011;62090;52.330;9.104;2023-09-18T09:37:19;10.73;;;2.30;;
3131;SDS011;62090;52.330;9.104;2023-09-18T09:39:49;18.03;;;2.80;;
3131;SDS011;62090;52.330;9.104;2023-09-18T09:42:20;6.43;;;2.33;;
3131;SDS011;62090;52.330;9.104;2023-09-18T09:45:00;7.17;;;2.27;;
3131;SDS011;62090;52.330;9.104;2023-09-18T09:47:35;5.80;;;1.87;;
3131;SDS011;62090;52.330;9.104;2023-09-18T09:50:06;16.97;;;2.70;;
3131;SDS011;62090;52.330;9.104;2023-09-18T09:52:40;9.27;;;2.40;;
3131;SDS011;62090;52.330;9.104;2023-09-18T09:55:18;10.37;;;2.17;;
3131;SDS011;62090;52.330;9.104;2023-09-18T09:57:50;5.93;;;2.40;;
3131;SDS011;62090;52.330;9.104;2023-09-18T10:00:24;8.07;;;2.20;;
3131;SDS011;62090;52.330;9.104;2023-09-18T10:03:02;18.43;;;2.90;;
3131;SDS011;62090;52.330;9.104;2023-09-18T10:05:37;9.47;;;2.80;;
3131;SDS011;62090;52.330;9.104;2023-09-18T10:08:10;3.30;;;1.80;;
3131;SDS011;62090;52.330;9.104;2023-09-18T10:10:42;6.40;;;2.20;;
3131;SDS011;62090;52.330;9.104;2023-09-18T10:13:16;5.53;;;2.00;;
3131;SDS011;62090;52.330;9.104;2023-09-18T10:15:48;8.33;;;2.30;;
3131;SDS011;62090;52.330;9.104;2023-09-18T10:18:26;6.50;;;1.93;;
3131;SDS011;62090;52.330;9.104;2023-09-18T10:21:00;10.73;;;2.23;;
3131;SDS011;62090;52.330;9.104;2023-09-18T10:23:38;6.70;;;2.10;;
3131;SDS011;62090;52.330;9.104;2023-09-18T10:26:22;7.83;;;2.50;;
3131;SDS011;62090;52.330;9.104;2023-09-18T10:28:56;8.53;;;1.83;;
3131;SDS011;62090;52.330;9.104;2023-09-18T10:31:30;5.80;;;2.07;;
3131;SDS011;62090;52.330;9.104;2023-09-18T10:34:06;6.63;;;2.20;;
3131;SDS011;62090;52.330;9.104;2023-09-18T10:36:36;9.70;;;2.33;;
3131;SDS011;62090;52.330;9.104;2023-09-18T10:39:08;9.13;;;1.90;;
3131;SDS011;62090;52.330;9.104;2023-09-18T10:41:39;9.13;;;2.23;;
3131;SDS011;62090;52.330;9.104;2023-09-18T10:44:12;6.20;;;2.27;;
3131;SDS011;62090;52.330;9.104;2023-09-18T10:46:43;14.50;;;2.67;;
3131;SDS011;62090;52.330;9.104;2023-09-18T10:49:16;7.90;;;1.90;;
3131;SDS011;62090;52.330;9.104;2023-09-18T10:51:46;13.73;;;2.53;;
3131;SDS011;62090;52.330;9.104;2023-09-18T10:54:20;6.37;;;1.73;;
3131;SDS011;62090;52.330;9.104;2023-09-18T10:56:51;9.03;;;1.80;;
3131;SDS011;62090;52.330;9.104;2023-09-18T10:59:21;11.73;;;2.10;;
3131;SDS011;62090;52.330;9.104;2023-09-18T11:01:51;6.33;;;2.60;;
3131;SDS011;62090;52.330;9.104;2023-09-18T11:04:24;6.33;;;1.90;;
3131;SDS011;62090;52.330;9.104;2023-09-18T11:07:03;9.93;;;2.30;;
3131;SDS011;62090;52.330;9.104;2023-09-18T11:09:43;10.70;;;2.40;;
3131;SDS011;62090;52.330;9.104;2023-09-18T11:12:15;5.27;;;2.20;;
3131;SDS011;62090;52.330;9.104;2023-09-18T11:14:47;4.27;;;1.93;;
3131;SDS011;62090;52.330;9.104;2023-09-18T11:17:29;14.83;;;2.17;;
3131;SDS011;62090;52.330;9.104;2023-09-18T11:20:15;4.37;;;1.70;;
3131;SDS011;62090;52.330;9.104;2023-09-18T11:22:47;9.97;;;1.73;;
3131;SDS011;62090;52.330;9.104;2023-09-18T11:25:34;15.50;;;2.03;;
3131;SDS011;62090;52.330;9.104;2023-09-18T11:28:07;6.93;;;2.30;;
3131;SDS011;62090;52.330;9.104;2023-09-18T11:30:38;7.20;;;1.73;;
3131;SDS011;62090;52.330;9.104;2023-09-18T11:33:29;6.47;;;2.20;;
3131;SDS011;62090;52.330;9.104;2023-09-18T11:36:04;11.83;;;2.40;;
3131;SDS011;62090;52.330;9.104;2023-09-18T11:41:26;8.83;;;1.80;;
3131;SDS011;62090;52.330;9.104;2023-09-18T11:47:03;4.37;;;1.80;;
3131;SDS011;62090;52.330;9.104;2023-09-18T11:49:40;6.20;;;1.80;;
3131;SDS011;62090;52.330;9.104;2023-09-18T11:52:19;15.60;;;2.37;;
3131;SDS011;62090;52.330;9.104;2023-09-18T11:54:52;7.33;;;1.80;;
3131;SDS011;62090;52.330;9.104;2023-09-18T11:57:22;2.53;;;1.47;;
3131;SDS011;62090;52.330;9.104;2023-09-18T11:59:53;6.60;;;1.97;;
3131;SDS011;62090;52.330;9.104;2023-09-18T12:02:30;4.17;;;1.47;;
3131;SDS011;62090;52.330;9.104;2023-09-18T12:05:09;9.43;;;2.77;;
3131;SDS011;62090;52.330;9.104;2023-09-18T12:07:43;6.40;;;1.83;;
3131;SDS011;62090;52.330;9.104;2023-09-18T12:10:15;2.33;;;1.40;;
3131;SDS011;62090;52.330;9.104;2023-09-18T12:12:47;4.00;;;1.40;;
3131;SDS011;62090;52.330;9.104;2023-09-18T12:15:18;2.60;;;1.40;;
3131;SDS011;62090;52.330;9.104;2023-09-18T12:17:48;5.33;;;1.70;;
3131;SDS011;62090;52.330;9.104;2023-09-18T12:20:26;6.03;;;2.00;;
3131;SDS011;62090;52.330;9.104;2023-09-18T12:22:59;3.70;;;1.50;;
3131;SDS011;62090;52.330;9.104;2023-09-18T12:25:29;5.90;;;1.73;;
3131;SDS011;62090;52.330;9.104;2023-09-18T12:27:59;7.17;;;2.40;;
3131;SDS011;62090;52.330;9.104;2023-09-18T12:30:30;8.60;;;2.07;;
3131;SDS011;62090;52.330;9.104;2023-09-18T12:33:03;4.80;;;1.60;;
3131;SDS011;62090;52.330;9.104;2023-09-18T12:35:34;8.53;;;1.60;;
3131;SDS011;62090;52.330;9.104;2023-09-18T12:38:15;4.37;;;1.67;;
3131;SDS011;62090;52.330;9.104;2023-09-18T12:40:51;7.80;;;1.40;;
3131;SDS011;62090;52.330;9.104;2023-09-18T12:43:22;5.97;;;1.63;;
3131;SDS011;62090;52.330;9.104;2023-09-18T12:45:56;2.90;;;1.63;;
3131;SDS011;62090;52.330;9.104;2023-09-18T12:48:26;6.30;;;1.80;;
3131;SDS011;62090;52.330;9.104;2023-09-18T12:51:02;4.50;;;1.80;;
3131;SDS011;62090;52.330;9.104;2023-09-18T12:53:35;6.07;;;1.50;;
3131;SDS011;62090;52.330;9.104;2023-09-18T12:56:06;10.53;;;3.50;;
3131;SDS011;62090;52.330;9.104;2023-09-18T12:58:37;7.23;;;1.37;;
3131;SDS011;62090;52.330;9.104;2023-09-18T13:01:27;4.23;;;1.60;;
3131;SDS011;62090;52.330;9.104;2023-09-18T13:03:57;3.30;;;1.40;;
3131;SDS011;62090;52.330;9.104;2023-09-18T13:06:32;5.60;;;1.53;;
3131;SDS011;62090;52.330;9.104;2023-09-18T13:09:19;8.63;;;1.63;;
3131;SDS011;62090;52.330;9.104;2023-09-18T13:11:53;7.67;;;1.73;;
3131;SDS011;62090;52.330;9.104;2023-09-18T13:14:25;3.30;;;1.70;;
3131;SDS011;62090;52.330;9.104;2023-09-18T13:16:59;6.67;;;1.77;;
3131;SDS011;62090;52.330;9.104;2023-09-18T13:19:31;13.00;;;1.97;;
3131;SDS011;62090;52.330;9.104;2023-09-18T13:22:01;4.67;;;1.67;;
3131;SDS011;62090;52.330;9.104;2023-09-18T13:24:34;8.63;;;1.43;;
3131;SDS011;62090;52.330;9.104;2023-09-18T13:27:04;9.57;;;1.70;;
3131;SDS011;62090;52.330;9.104;2023-09-18T13:29:34;5.33;;;1.40;;
3131;SDS011;62090;52.330;9.104;2023-09-18T13:32:05;8.80;;;1.63;;
3131;SDS011;62090;52.330;9.104;2023-09-18T13:34:35;2.27;;;1.40;;
3131;SDS011;62090;52.330;9.104;2023-09-18T13:37:06;9.30;;;1.67;;
3131;SDS011;62090;52.330;9.104;2023-09-18T13:39:38;7.10;;;1.50;;
3131;SDS011;62090;52.330;9.104;2023-09-18T13:42:08;7.23;;;1.60;;
3131;SDS011;62090;52.330;9.104;2023-09-18T13:44:39;4.30;;;2.07;;
3131;SDS011;62090;52.330;9.104;2023-09-18T13:47:09;4.63;;;1.73;;
3131;SDS011;62090;52.330;9.104;2023-09-18T13:49:39;5.47;;;1.53;;
3131;SDS011;62090;52.330;9.104;2023-09-18T13:52:08;6.97;;;1.43;;
3131;SDS011;62090;52.330;9.104;2023-09-18T13:54:41;2.63;;;1.30;;
3131;SDS011;62090;52.330;9.104;2023-09-18T13:57:17;5.47;;;1.57;;
3131;SDS011;62090;52.330;9.104;2023-09-18T13:59:48;4.70;;;1.70;;
3131;SDS011;62090;52.330;9.104;2023-09-18T14:02:19;2.33;;;1.53;;
3131;SDS011;62090;52.330;9.104;2023-09-18T14:04:49;13.03;;;1.40;;
3131;SDS011;62090;52.330;9.104;2023-09-18T14:07:19;4.47;;;1.23;;
3131;SDS011;62090;52.330;9.104;2023-09-18T14:09:52;8.30;;;1.30;;
3131;SDS011;62090;52.330;9.104;2023-09-18T14:12:22;8.23;;;1.57;;
3131;SDS011;62090;52.330;9.104;2023-09-18T14:14:52;2.90;;;1.60;;
3131;SDS011;62090;52.330;9.104;2023-09-18T14:17:22;14.60;;;1.90;;
3131;SDS011;62090;52.330;9.104;2023-09-18T14:19:52;2.93;;;1.70;;
3131;SDS011;62090;52.330;9.104;2023-09-18T14:22:23;5.43;;;1.30;;
3131;SDS011;62090;52.330;9.104;2023-09-18T14:24:55;3.47;;;1.57;;
3131;SDS011;62090;52.330;9.104;2023-09-18T14:27:25;7.07;;;1.63;;
3131;SDS011;62090;52.330;9.104;2023-09-18T14:29:55;7.17;;;1.77;;
3131;SDS011;62090;52.330;9.104;2023-09-18T14:32:25;9.00;;;1.70;;
3131;SDS011;62090;52.330;9.104;2023-09-18T14:34:55;4.77;;;1.63;;
3131;SDS011;62090;52.330;9.104;2023-09-18T14:37:27;8.00;;;1.63;;
3131;SDS011;62090;52.330;9.104;2023-09-18T14:40:00;3.70;;;1.33;;
3131;SDS011;62090;52.330;9.104;2023-09-18T14:42:30;3.57;;;1.50;;
3131;SDS011;62090;52.330;9.104;2023-09-18T14:45:00;5.20;;;1.40;;
3131;SDS011;62090;52.330;9.104;2023-09-18T14:47:30;7.23;;;1.70;;
3131;SDS011;62090;52.330;9.104;2023-09-18T14:50:00;6.67;;;1.80;;
3131;SDS011;62090;52.330;9.104;2023-09-18T14:52:31;4.93;;;1.10;;
3131;SDS011;62090;52.330;9.104;2023-09-18T14:55:04;3.00;;;1.50;;
3131;SDS011;62090;52.330;9.104;2023-09-18T14:57:38;7.37;;;2.83;;
3131;SDS011;62090;52.330;9.104;2023-09-18T15:00:09;11.70;;;2.03;;
3131;SDS011;62090;52.330;9.104;2023-09-18T15:02:41;7.30;;;1.63;;
3131;SDS011;62090;52.330;9.104;2023-09-18T15:05:12;3.80;;;1.67;;
3131;SDS011;62090;52.330;9.104;2023-09-18T15:07:45;5.90;;;2.30;;
3131;SDS011;62090;52.330;9.104;2023-09-18T15:10:18;7.30;;;1.50;;
3131;SDS011;62090;52.330;9.104;2023-09-18T15:12:48;4.90;;;1.40;;
3131;SDS011;62090;52.330;9.104;2023-09-18T15:15:19;2.27;;;1.30;;
3131;SDS011;62090;52.330;9.104;2023-09-18T15:17:49;3.13;;;1.53;;
3131;SDS011;62090;52.330;9.104;2023-09-18T15:20:19;10.63;;;1.80;;
3131;SDS011;62090;52.330;9.104;2023-09-18T15:22:50;5.57;;;1.30;;
3131;SDS011;62090;52.330;9.104;2023-09-18T15:25:25;3.90;;;1.57;;
3131;SDS011;62090;52.330;9.104;2023-09-18T15:27:55;4.10;;;1.63;;
3131;SDS011;62090;52.330;9.104;2023-09-18T15:30:25;11.67;;;1.70;;
3131;SDS011;62090;52.330;9.104;2023-09-18T15:32:55;2.70;;;1.50;;
3131;SDS011;62090;52.330;9.104;2023-09-18T15:35:25;4.50;;;2.13;;
3131;SDS011;62090;52.330;9.104;2023-09-18T15:37:55;12.30;;;1.70;;